Kennett, Missouri
Current Conditions -  °F | °C
As of 7:53 AM on Friday 28 Nov 2014 (Local Time) from KHKA Reporting Station
Clear Clear  
Wind Chill: 33°   Ceiling: Unl
Heat Index: 40°   Visibility: 10mi
Dew Point: 26°   Wind: 13mph
Humidity: 58%   Direction: 170°S
Pressure: 30.39"   Gusts: NA
Location:  36.24°N, 90.05°W
Report Text: KHKA 281353Z AUTO 17011KT 10SM CLR 04/M03 A3039 RMK AO2 SLP292 T00441033 $
Loading
Personal Weather Stations






























Interactive Weather Map New forecast layout! Learn more

10-Day Weather Forecast

Advertisements
Track Severe Weather on mobile